Time;durP1;ratioP1;P1;durP2;ratioP2;P2;SDS_P1;SDS_P2;PMS_P1;PMS_P2;Temp;Humidity;BMP_temperature;BMP_pressure;BME280_temperature;BME280_humidity;BME280_pressure;Samples;Min_cycle;Max_cycle;Signal;HPM_P1;HPM_P2
2022/08/12 00:44:37;;;;;;;4.82;4.32;;;;;;;;;;5034125;28;20456;-68
2022/08/12 00:47:04;;;;;;;4.38;3.97;;;;;;;;;;5034109;28;20126;-69
2022/08/12 00:49:31;;;;;;;4.07;3.77;;;;;;;;;;5033778;28;20081;-69
2022/08/12 00:52:05;;;;;;;4.45;4.05;;;;;;;;;;5034073;28;20053;-69
2022/08/12 00:54:33;;;;;;;5.80;4.03;;;;;;;;;;5033698;28;20509;-69
2022/08/12 00:57:03;;;;;;;4.28;3.92;;;;;;;;;;5033847;28;20460;-69
2022/08/12 00:59:30;;;;;;;4.68;4.20;;;;;;;;;;5033565;28;20049;-68
2022/08/12 01:01:56;;;;;;;;;;;;;;;;;;5034029;28;20095;-68
2022/08/12 01:12:56;;;;;;;4.87;4.03;;;;;;;;;;5033448;28;20045;-69
2022/08/12 01:15:48;;;;;;;4.50;4.10;;;;;;;;;;5033481;28;20060;-69
2022/08/12 01:18:15;;;;;;;4.28;3.88;;;;;;;;;;5032121;28;20493;-69
2022/08/12 01:20:42;;;;;;;;;;;;;;;;;;5033822;28;20103;-69
2022/08/12 01:23:27;;;;;;;4.60;4.20;;;;;;;;;;5033470;28;20043;-69
2022/08/12 01:25:54;;;;;;;5.25;4.13;;;;;;;;;;5033426;28;20452;-69
2022/08/12 01:28:23;;;;;;;5.68;4.07;;;;;;;;;;5033091;28;20125;-69
2022/08/12 01:30:49;;;;;;;4.38;4.07;;;;;;;;;;5032889;28;20099;-69
2022/08/12 01:33:17;;;;;;;4.47;4.00;;;;;;;;;;5032982;28;20050;-69
2022/08/12 01:35:47;;;;;;;4.47;3.97;;;;;;;;;;5032904;28;20050;-69
2022/08/12 01:38:34;;;;;;;4.25;3.95;;;;;;;;;;5032877;28;20045;-69
2022/08/12 01:41:01;;;;;;;5.13;4.20;;;;;;;;;;5033108;28;20472;-69
2022/08/12 01:43:29;;;;;;;5.30;4.20;;;;;;;;;;5033119;28;20099;-69
2022/08/12 01:46:13;;;;;;;5.00;4.50;;;;;;;;;;5032975;28;20054;-69
2022/08/12 01:48:59;;;;;;;4.70;4.30;;;;;;;;;;5033018;28;20080;-69
2022/08/12 01:51:42;;;;;;;4.07;3.78;;;;;;;;;;5032849;28;20111;-69
2022/08/12 01:54:29;;;;;;;4.47;4.05;;;;;;;;;;5033080;28;20482;-69
2022/08/12 01:57:04;;;;;;;4.03;3.63;;;;;;;;;;5032582;28;20050;-69
2022/08/12 01:59:48;;;;;;;4.60;4.20;;;;;;;;;;5030119;28;20083;-69
2022/08/12 02:02:20;;;;;;;6.82;4.63;;;;;;;;;;5024394;28;20050;-69
2022/08/12 02:11:14;;;;;;;8.65;4.75;;;;;;;;;;5032412;28;20091;-69
2022/08/12 02:13:48;;;;;;;5.65;4.63;;;;;;;;;;5032307;28;20536;-69
2022/08/12 02:16:30;;;;;;;4.90;4.38;;;;;;;;;;5032161;28;20057;-69
2022/08/12 02:19:15;;;;;;;4.95;4.22;;;;;;;;;;5032419;28;20058;-69
2022/08/12 02:22:06;;;;;;;5.68;4.55;;;;;;;;;;5032029;28;20130;-69
2022/08/12 02:24:36;;;;;;;5.45;4.47;;;;;;;;;;5031977;28;20092;-69
2022/08/12 02:27:04;;;;;;;5.20;4.72;;;;;;;;;;5032226;28;20130;-69
2022/08/12 02:29:31;;;;;;;5.40;5.00;;;;;;;;;;5031688;28;20077;-69
2022/08/12 02:31:58;;;;;;;5.43;5.00;;;;;;;;;;5032217;28;20087;-69
2022/08/12 02:34:25;;;;;;;5.20;4.70;;;;;;;;;;5032065;28;20485;-69
2022/08/12 02:36:54;;;;;;;5.13;4.63;;;;;;;;;;5031840;28;20390;-69
2022/08/12 02:39:23;;;;;;;4.97;4.57;;;;;;;;;;5032171;28;20053;-69
2022/08/12 02:41:51;;;;;;;5.05;4.43;;;;;;;;;;5032086;28;20386;-69
2022/08/12 02:44:17;;;;;;;;;;;;;;;;;;5032464;28;20123;-69
2022/08/12 02:46:49;;;;;;;5.27;4.87;;;;;;;;;;5031739;28;19937;-69
2022/08/12 02:49:22;;;;;;;5.45;4.25;;;;;;;;;;5032056;28;20053;-69
2022/08/12 02:51:49;;;;;;;4.85;4.45;;;;;;;;;;5030455;28;20050;-69
2022/08/12 02:54:16;;;;;;;5.73;5.23;;;;;;;;;;5031856;28;20057;-69
2022/08/12 02:56:43;;;;;;;5.25;4.85;;;;;;;;;;5031553;28;20072;-69
2022/08/12 02:59:18;;;;;;;5.70;5.22;;;;;;;;;;5031682;28;20049;-69
2022/08/12 03:01:45;;;;;;;5.88;5.25;;;;;;;;;;5031558;28;20045;-69
2022/08/12 03:04:18;;;;;;;6.05;5.45;;;;;;;;;;5031579;28;20077;-69
2022/08/12 03:06:55;;;;;;;6.13;5.53;;;;;;;;;;5031567;28;20088;-69
2022/08/12 03:09:23;;;;;;;5.43;5.03;;;;;;;;;;5031049;28;20563;-69
2022/08/12 03:11:58;;;;;;;4.80;4.40;;;;;;;;;;5031766;28;20064;-69
2022/08/12 03:14:27;;;;;;;5.53;5.05;;;;;;;;;;5031495;28;20053;-69
2022/08/12 03:17:07;;;;;;;6.75;5.15;;;;;;;;;;5031619;28;20076;-69
2022/08/12 03:19:36;;;;;;;5.38;4.75;;;;;;;;;;5031671;28;20077;-69
2022/08/12 03:22:23;;;;;;;5.60;5.00;;;;;;;;;;5030514;28;20128;-69
2022/08/12 03:24:50;;;;;;;5.72;5.18;;;;;;;;;;5031245;28;20532;-69
2022/08/12 03:27:16;;;;;;;5.75;5.25;;;;;;;;;;5031636;28;20111;-69
2022/08/12 03:29:46;;;;;;;5.53;5.03;;;;;;;;;;5031703;28;20099;-69
2022/08/12 03:32:17;;;;;;;6.57;5.40;;;;;;;;;;5031241;28;20046;-69
2022/08/12 03:35:06;;;;;;;5.88;5.38;;;;;;;;;;5031288;28;20053;-69
2022/08/12 03:37:34;;;;;;;7.70;5.28;;;;;;;;;;5031376;28;20041;-69
2022/08/12 03:40:00;;;;;;;6.13;5.63;;;;;;;;;;5031142;28;20452;-69
2022/08/12 03:42:40;;;;;;;6.07;5.30;;;;;;;;;;5034685;28;20041;-69
2022/08/12 04:01:51;;;;;;;5.90;5.40;;;;;;;;;;5034747;28;20049;-69
2022/08/12 04:04:17;;;;;;;5.75;5.32;;;;;;;;;;5034887;28;20057;-69
2022/08/12 04:06:44;;;;;;;5.75;5.30;;;;;;;;;;5034583;28;20099;-69
2022/08/12 04:09:12;;;;;;;5.85;5.38;;;;;;;;;;5034750;28;20053;-69
2022/08/12 04:14:28;;;;;;;6.18;5.60;;;;;;;;;;5034609;28;20064;-69
2022/08/12 04:16:55;;;;;;;5.60;5.20;;;;;;;;;;5034678;28;20053;-69
2022/08/12 04:19:22;;;;;;;5.93;5.43;;;;;;;;;;5033164;28;20063;-69
2022/08/12 04:21:49;;;;;;;5.93;5.53;;;;;;;;;;5034422;28;20115;-69
2022/08/12 04:24:29;;;;;;;6.00;5.55;;;;;;;;;;5034749;28;20057;-69
2022/08/12 04:26:55;;;;;;;5.65;5.18;;;;;;;;;;5034253;28;20152;-69
2022/08/12 04:29:22;;;;;;;5.88;5.38;;;;;;;;;;5034259;28;20532;-69
2022/08/12 04:32:09;;;;;;;6.65;5.88;;;;;;;;;;5034031;28;20055;-69
2022/08/12 04:34:37;;;;;;;6.00;5.38;;;;;;;;;;5034117;28;20095;-68
2022/08/12 04:37:04;;;;;;;5.78;5.28;;;;;;;;;;5034068;28;20099;-69
2022/08/12 04:39:30;;;;;;;5.70;5.20;;;;;;;;;;5034138;28;20390;-69
2022/08/12 04:41:59;;;;;;;6.10;5.50;;;;;;;;;;5034151;28;20136;-69
2022/08/12 04:44:26;;;;;;;7.50;5.93;;;;;;;;;;5034258;28;20046;-69
2022/08/12 04:46:54;;;;;;;7.70;5.43;;;;;;;;;;5034023;28;20494;-69
2022/08/12 04:49:23;;;;;;;6.20;5.70;;;;;;;;;;5033905;28;20374;-69
2022/08/12 04:51:49;;;;;;;6.70;5.88;;;;;;;;;;5034107;28;20149;-69
2022/08/12 04:54:24;;;;;;;7.30;6.70;;;;;;;;;;5034007;28;20048;-69
2022/08/12 04:56:52;;;;;;;6.90;6.22;;;;;;;;;;5033930;28;20049;-70
2022/08/12 04:59:31;;;;;;;6.72;6.22;;;;;;;;;;5033884;28;20466;-70
2022/08/12 05:02:14;;;;;;;7.85;6.53;;;;;;;;;;5033858;28;20053;-69
2022/08/12 05:04:48;;;;;;;10.93;6.43;;;;;;;;;;5033898;28;20077;-69
2022/08/12 05:07:15;;;;;;;7.55;6.28;;;;;;;;;;5033524;28;20081;-69
2022/08/12 05:09:42;;;;;;;7.30;6.05;;;;;;;;;;5033553;28;20477;-70
2022/08/12 05:12:31;;;;;;;9.60;7.40;;;;;;;;;;5033411;28;20052;-69
2022/08/12 05:14:58;;;;;;;9.32;6.82;;;;;;;;;;5033489;28;20058;-69
2022/08/12 05:17:25;;;;;;;7.55;6.57;;;;;;;;;;5033214;28;20084;-69
2022/08/12 05:19:53;;;;;;;7.43;6.38;;;;;;;;;;5033326;28;20052;-69
2022/08/12 05:22:22;;;;;;;6.68;5.97;;;;;;;;;;5033333;28;20056;-69
2022/08/12 05:24:49;;;;;;;6.72;6.22;;;;;;;;;;5033474;28;20045;-69
2022/08/12 05:27:16;;;;;;;6.80;6.28;;;;;;;;;;5033141;28;20555;-69
2022/08/12 05:29:48;;;;;;;6.53;5.95;;;;;;;;;;5033032;28;20516;-69
2022/08/12 05:32:34;;;;;;;6.97;6.38;;;;;;;;;;5033053;28;20090;-69
2022/08/12 05:35:05;;;;;;;7.80;6.68;;;;;;;;;;5032943;28;20128;-69
2022/08/12 05:37:35;;;;;;;7.43;6.72;;;;;;;;;;5033186;28;20053;-69
2022/08/12 05:40:02;;;;;;;9.75;6.47;;;;;;;;;;5032960;28;20075;-69
2022/08/12 05:42:36;;;;;;;7.90;7.10;;;;;;;;;;5032851;28;20087;-69
2022/08/12 05:45:03;;;;;;;7.45;6.30;;;;;;;;;;5033107;28;20053;-69
2022/08/12 05:47:29;;;;;;;7.47;6.68;;;;;;;;;;5032991;28;20087;-69
2022/08/12 05:50:16;;;;;;;6.75;6.15;;;;;;;;;;5032901;28;20445;-69
2022/08/12 05:52:42;;;;;;;6.85;6.13;;;;;;;;;;5031502;28;20099;-69
2022/08/12 05:55:09;;;;;;;6.80;5.83;;;;;;;;;;5032918;28;20125;-69
2022/08/12 05:57:36;;;;;;;;;;;;;;;;;;5033107;28;20303;-69
2022/08/12 06:00:03;;;;;;;6.03;5.53;;;;;;;;;;5033018;28;20380;-70
2022/08/12 06:02:30;;;;;;;6.95;6.07;;;;;;;;;;5032411;28;20069;-70
2022/08/12 06:04:59;;;;;;;6.50;5.90;;;;;;;;;;5032170;28;20136;-70
2022/08/12 06:07:25;;;;;;;6.40;5.80;;;;;;;;;;5032199;28;20497;-71
2022/08/12 06:10:12;;;;;;;7.35;6.40;;;;;;;;;;5032154;28;20061;-71
2022/08/12 06:12:38;;;;;;;9.18;6.00;;;;;;;;;;5032489;28;20057;-70
2022/08/12 06:15:05;;;;;;;6.60;6.00;;;;;;;;;;5031991;28;20071;-71
2022/08/12 06:17:32;;;;;;;7.33;6.00;;;;;;;;;;5031980;28;20364;-71
2022/08/12 06:19:58;;;;;;;7.50;6.10;;;;;;;;;;5031987;28;20123;-72
2022/08/12 06:22:46;;;;;;;6.05;5.47;;;;;;;;;;5031325;28;20048;-71
2022/08/12 06:25:17;;;;;;;6.57;5.72;;;;;;;;;;5031819;28;20041;-71
2022/08/12 06:27:48;;;;;;;6.90;6.30;;;;;;;;;;5031719;28;20049;-71
2022/08/12 06:30:35;;;;;;;8.40;6.40;;;;;;;;;;5029812;28;20053;-71
2022/08/12 06:33:05;;;;;;;7.78;5.88;;;;;;;;;;5031825;28;20425;-71
2022/08/12 06:35:52;;;;;;;6.43;5.82;;;;;;;;;;5031435;28;20057;-70
2022/08/12 06:38:26;;;;;;;7.70;6.38;;;;;;;;;;5031462;28;20053;-72
2022/08/12 06:43:43;;;;;;;6.85;5.65;;;;;;;;;;5031289;28;20092;-71
2022/08/12 06:46:29;;;;;;;6.10;5.40;;;;;;;;;;5031489;28;20136;-69
2022/08/12 06:48:57;;;;;;;5.73;5.23;;;;;;;;;;5030393;28;20057;-70
2022/08/12 06:51:25;;;;;;;6.00;5.22;;;;;;;;;;5031632;28;20055;-69
2022/08/12 06:53:52;;;;;;;9.00;5.80;;;;;;;;;;5031109;28;20093;-71
2022/08/12 06:56:19;;;;;;;5.20;4.63;;;;;;;;;;5031785;28;20107;-70
2022/08/12 06:58:45;;;;;;;8.07;5.35;;;;;;;;;;5031532;28;20438;-72
2022/08/12 07:01:12;;;;;;;6.20;4.57;;;;;;;;;;5027959;28;20084;-70
2022/08/12 07:03:39;;;;;;;6.88;4.45;;;;;;;;;;5030048;28;20053;-70
2022/08/12 07:06:10;;;;;;;4.72;4.15;;;;;;;;;;5031607;28;20084;-71
2022/08/12 07:08:37;;;;;;;4.40;3.20;;;;;;;;;;5031739;28;20089;-70
2022/08/12 07:11:05;;;;;;;8.10;4.00;;;;;;;;;;5031387;28;20081;-74
2022/08/12 07:13:37;;;;;;;5.50;3.17;;;;;;;;;;5031623;28;20146;-73
2022/08/12 07:16:25;;;;;;;4.75;3.33;;;;;;;;;;5030770;28;20053;-72
2022/08/12 07:18:55;;;;;;;3.72;3.08;;;;;;;;;;5034184;28;20049;-74
2022/08/12 07:21:23;;;;;;;3.97;2.63;;;;;;;;;;5035641;28;20128;-71
2022/08/12 07:24:10;;;;;;;3.70;3.15;;;;;;;;;;5035668;28;20140;-74
2022/08/12 07:26:40;;;;;;;6.60;3.07;;;;;;;;;;5034298;28;20077;-71
2022/08/12 07:29:10;;;;;;;4.25;2.45;;;;;;;;;;5035534;28;20127;-73
2022/08/12 07:31:36;;;;;;;2.53;2.33;;;;;;;;;;5035153;28;20559;-78
2022/08/12 07:34:04;;;;;;;3.70;2.63;;;;;;;;;;5032861;28;20559;-80
2022/08/12 07:36:32;;;;;;;3.47;2.58;;;;;;;;;;5035133;28;20513;-82
2022/08/12 07:38:59;;;;;;;2.88;2.55;;;;;;;;;;5030893;28;20081;-74
2022/08/12 07:41:28;;;;;;;3.17;2.65;;;;;;;;;;5035216;28;20099;-78
2022/08/12 07:43:56;;;;;;;3.25;2.58;;;;;;;;;;5035078;28;20501;-77
2022/08/12 07:46:35;;;;;;;4.82;2.33;;;;;;;;;;5034927;28;20128;-77
2022/08/12 07:49:04;;;;;;;4.28;2.40;;;;;;;;;;5033767;28;20080;-78
2022/08/12 07:51:31;;;;;;;4.03;2.72;;;;;;;;;;5034793;28;20492;-73
2022/08/12 07:53:58;;;;;;;4.15;2.55;;;;;;;;;;5035139;28;20053;-74
2022/08/12 07:56:29;;;;;;;3.67;2.60;;;;;;;;;;5035139;28;20461;-74
2022/08/12 07:58:57;;;;;;;3.58;2.33;;;;;;;;;;5034852;28;20103;-75
2022/08/12 08:01:24;;;;;;;4.85;2.10;;;;;;;;;;5035081;28;20077;-75
2022/08/12 08:06:44;;;;;;;2.30;1.95;;;;;;;;;;5034677;28;20649;-78
2022/08/12 08:09:11;;;;;;;4.28;1.83;;;;;;;;;;5034591;28;20370;-73
2022/08/12 08:14:28;;;;;;;4.57;1.90;;;;;;;;;;5034431;28;20088;-76
2022/08/12 08:16:59;;;;;;;3.00;2.05;;;;;;;;;;5033615;28;20504;-74
2022/08/12 08:19:27;;;;;;;2.90;1.77;;;;;;;;;;5034525;28;20053;-74
2022/08/12 08:21:55;;;;;;;2.63;2.10;;;;;;;;;;5034418;28;20049;-75
2022/08/12 08:24:23;;;;;;;2.58;1.80;;;;;;;;;;5033264;28;20076;-77
2022/08/12 08:26:51;;;;;;;4.82;1.85;;;;;;;;;;5033268;28;20104;-77
2022/08/12 08:29:20;;;;;;;3.42;1.90;;;;;;;;;;5033761;28;20053;-74
2022/08/12 08:31:49;;;;;;;3.22;1.75;;;;;;;;;;5033913;28;20099;-75
2022/08/12 08:34:17;;;;;;;3.65;2.10;;;;;;;;;;5033841;28;20053;-79
2022/08/12 08:37:03;;;;;;;2.58;1.80;;;;;;;;;;5032725;28;20136;-73
2022/08/12 08:39:36;;;;;;;3.67;1.80;;;;;;;;;;5033478;28;20128;-74
2022/08/12 08:44:48;;;;;;;5.70;1.98;;;;;;;;;;5033576;28;20489;-75
2022/08/12 08:47:23;;;;;;;2.70;1.60;;;;;;;;;;5033652;28;20056;-65
2022/08/12 08:49:50;;;;;;;3.58;1.60;;;;;;;;;;5033537;28;20064;-64
2022/08/12 08:52:20;;;;;;;2.92;1.70;;;;;;;;;;5033869;28;20732;-64
2022/08/12 08:55:07;;;;;;;4.85;1.88;;;;;;;;;;5033887;28;20053;-65
2022/08/12 08:57:33;;;;;;;1.83;1.73;;;;;;;;;;5031718;28;20088;-66
2022/08/12 09:00:09;;;;;;;;;;;;;;;;;;5033887;28;20508;-65
2022/08/12 09:02:35;;;;;;;4.70;1.83;;;;;;;;;;5033229;28;19925;-65
2022/08/12 09:05:03;;;;;;;3.33;1.70;;;;;;;;;;5033266;28;20049;-66
2022/08/12 09:07:42;;;;;;;3.60;1.52;;;;;;;;;;5033305;28;20053;-65
2022/08/12 09:10:24;;;;;;;4.40;1.52;;;;;;;;;;5032928;28;20398;-65
2022/08/12 09:15:49;;;;;;;3.50;1.80;;;;;;;;;;5032923;28;20486;-66
2022/08/12 09:18:23;;;;;;;1.70;1.60;;;;;;;;;;5033248;28;20056;-64
2022/08/12 09:21:09;;;;;;;1.50;1.40;;;;;;;;;;5033006;28;20059;-64
2022/08/12 09:23:36;;;;;;;5.70;1.70;;;;;;;;;;5032951;28;20046;-64
2022/08/12 09:26:23;;;;;;;3.60;1.75;;;;;;;;;;5032869;28;20401;-64
2022/08/12 09:29:09;;;;;;;2.58;1.55;;;;;;;;;;5032837;28;20061;-67
2022/08/12 09:31:38;;;;;;;3.75;1.70;;;;;;;;;;5029411;28;20585;-65
2022/08/12 09:34:26;;;;;;;2.15;1.70;;;;;;;;;;5032566;28;20123;-65
2022/08/12 09:37:02;;;;;;;2.17;1.70;;;;;;;;;;5032829;28;20051;-65
2022/08/12 09:39:47;;;;;;;3.28;1.65;;;;;;;;;;5031530;28;20055;-65
2022/08/12 09:45:40;;;;;;;2.50;1.52;;;;;;;;;;5032318;28;20408;-65
2022/08/12 09:48:27;;;;;;;3.78;1.60;;;;;;;;;;5032219;28;20136;-65
2022/08/12 09:51:02;;;;;;;2.60;1.65;;;;;;;;;;5032175;28;20489;-65
2022/08/12 09:53:29;;;;;;;2.08;1.45;;;;;;;;;;5032099;28;20062;-64
2022/08/12 09:56:04;;;;;;;4.23;2.17;;;;;;;;;;5032285;28;20057;-64
2022/08/12 09:58:52;;;;;;;2.30;1.58;;;;;;;;;;5031866;28;20045;-64
2022/08/12 10:01:26;;;;;;;3.10;1.63;;;;;;;;;;5031545;28;20099;-64
2022/08/12 10:04:03;;;;;;;4.80;1.40;;;;;;;;;;5031841;28;20092;-65
2022/08/12 10:06:31;;;;;;;3.90;1.58;;;;;;;;;;5030684;28;20127;-64
2022/08/12 10:09:17;;;;;;;2.35;1.67;;;;;;;;;;5030016;28;20137;-65
2022/08/12 10:14:40;;;;;;;3.50;1.50;;;;;;;;;;5029267;28;20057;-65
2022/08/12 10:17:21;;;;;;;3.00;1.70;;;;;;;;;;5029402;28;20402;-65
2022/08/12 10:19:51;;;;;;;3.35;1.90;;;;;;;;;;5031580;28;20046;-65
2022/08/12 10:22:19;;;;;;;2.00;1.67;;;;;;;;;;5031843;28;20068;-65
2022/08/12 10:30:56;;;;;;;;;;;;;;;;;;5031531;28;20041;-65
2022/08/12 10:33:24;;;;;;;2.10;1.90;;;;;;;;;;5030759;28;19925;-65
2022/08/12 10:35:59;;;;;;;6.18;2.17;;;;;;;;;;5029489;28;20055;-67
2022/08/12 10:38:25;;;;;;;2.85;2.17;;;;;;;;;;5030840;28;20057;-65
2022/08/12 10:44:12;;;;;;;2.95;1.77;;;;;;;;;;5030341;28;20057;-65
2022/08/12 10:46:44;;;;;;;2.30;1.98;;;;;;;;;;5030919;28;20473;-65
2022/08/12 10:49:15;;;;;;;3.42;1.95;;;;;;;;;;5030358;28;20041;-64
2022/08/12 10:52:03;;;;;;;4.95;1.80;;;;;;;;;;5030904;28;20061;-64
2022/08/12 10:54:49;;;;;;;1.90;1.77;;;;;;;;;;5030936;28;20057;-64
2022/08/12 10:57:16;;;;;;;3.92;2.08;;;;;;;;;;5028664;28;20053;-64
2022/08/12 11:00:05;;;;;;;1.80;1.70;;;;;;;;;;5029607;28;20045;-64
2022/08/12 11:02:53;;;;;;;3.13;1.92;;;;;;;;;;5031224;28;20045;-64
2022/08/12 11:05:39;;;;;;;4.18;2.60;;;;;;;;;;5031180;28;20045;-64
2022/08/12 11:08:26;;;;;;;2.67;1.65;;;;;;;;;;5030580;28;20163;-66
2022/08/12 11:11:08;;;;;;;4.75;2.00;;;;;;;;;;5031023;28;20561;-64
2022/08/12 11:13:40;;;;;;;3.50;1.80;;;;;;;;;;5017677;28;20052;-64
2022/08/12 11:16:16;;;;;;;2.90;1.90;;;;;;;;;;5030630;28;20123;-64
2022/08/12 11:18:48;;;;;;;2.35;1.98;;;;;;;;;;5031042;28;20136;-65
2022/08/12 11:21:21;;;;;;;3.67;2.35;;;;;;;;;;5030567;28;20486;-64
2022/08/12 11:24:07;;;;;;;3.13;1.88;;;;;;;;;;5028660;28;20050;-65
2022/08/12 11:26:54;;;;;;;4.45;1.90;;;;;;;;;;5020422;28;20056;-64
2022/08/12 11:29:26;;;;;;;4.03;2.05;;;;;;;;;;5030602;28;20552;-65
2022/08/12 11:32:13;;;;;;;3.85;2.10;;;;;;;;;;5031019;28;20045;-64
2022/08/12 11:34:40;;;;;;;2.45;1.85;;;;;;;;;;5030897;28;20058;-65
2022/08/12 11:37:19;;;;;;;2.25;1.92;;;;;;;;;;5030706;28;20049;-65
2022/08/12 11:39:52;;;;;;;2.53;1.70;;;;;;;;;;5030826;28;20050;-65
2022/08/12 11:42:32;;;;;;;3.97;2.22;;;;;;;;;;5030566;28;20045;-65
2022/08/12 11:44:59;;;;;;;2.85;2.28;;;;;;;;;;5030355;28;20119;-65
2022/08/12 11:47:25;;;;;;;3.58;2.35;;;;;;;;;;5030620;28;20100;-65
2022/08/12 11:49:52;;;;;;;2.53;2.20;;;;;;;;;;5028020;28;20138;-66
2022/08/12 11:52:18;;;;;;;2.65;1.80;;;;;;;;;;5030254;28;20076;-66
2022/08/12 11:55:05;;;;;;;5.80;2.10;;;;;;;;;;5017911;28;20067;-66
2022/08/12 11:57:31;;;;;;;2.97;2.10;;;;;;;;;;5028107;28;20551;-66
2022/08/12 12:00:18;;;;;;;5.70;2.05;;;;;;;;;;5030081;28;20428;-66
2022/08/12 12:03:05;;;;;;;9.13;2.00;;;;;;;;;;5032338;28;20048;-67
2022/08/12 12:05:31;;;;;;;2.60;1.85;;;;;;;;;;5033883;28;20100;-66
2022/08/12 12:08:07;;;;;;;3.50;2.13;;;;;;;;;;5031761;28;20060;-66
2022/08/12 12:10:53;;;;;;;3.70;1.88;;;;;;;;;;5033649;28;20160;-67
2022/08/12 12:13:21;;;;;;;2.53;2.03;;;;;;;;;;5032292;28;20111;-65
2022/08/12 12:16:07;;;;;;;2.90;1.83;;;;;;;;;;5034220;28;20405;-66
2022/08/12 12:18:34;;;;;;;3.13;1.83;;;;;;;;;;5034021;28;20073;-66
2022/08/12 12:21:05;;;;;;;2.08;1.88;;;;;;;;;;5034185;28;20049;-66
2022/08/12 12:23:34;;;;;;;1.85;1.70;;;;;;;;;;5034244;28;20115;-66
2022/08/12 12:26:05;;;;;;;2.55;1.90;;;;;;;;;;5033758;28;20049;-66
2022/08/12 12:28:35;;;;;;;1.83;1.70;;;;;;;;;;5033625;28;20230;-65
2022/08/12 12:31:05;;;;;;;3.00;1.95;;;;;;;;;;5033470;28;20084;-65
2022/08/12 12:33:51;;;;;;;3.33;1.83;;;;;;;;;;5033401;28;20136;-67
2022/08/12 12:36:24;;;;;;;3.13;2.05;;;;;;;;;;5034159;28;20100;-67
2022/08/12 12:38:55;;;;;;;1.90;1.55;;;;;;;;;;5031854;28;20100;-68
2022/08/12 12:41:22;;;;;;;3.30;1.67;;;;;;;;;;5032371;28;20041;-68
2022/08/12 12:44:08;;;;;;;3.10;1.90;;;;;;;;;;5032319;28;20053;-68
2022/08/12 12:46:55;;;;;;;3.92;1.70;;;;;;;;;;5032778;28;20397;-68
2022/08/12 12:49:21;;;;;;;4.65;1.90;;;;;;;;;;5034075;28;20103;-68
2022/08/12 12:51:52;;;;;;;3.95;1.75;;;;;;;;;;5034051;28;20061;-68
2022/08/12 12:54:51;;;;;;;3.03;1.60;;;;;;;;;;5034089;28;20164;-68
2022/08/12 12:57:18;;;;;;;1.70;1.50;;;;;;;;;;5033785;28;20056;-68
2022/08/12 13:00:14;;;;;;;3.88;1.58;;;;;;;;;;5032517;28;20049;-69
2022/08/12 13:02:51;;;;;;;4.45;1.73;;;;;;;;;;5033530;28;20038;-68
2022/08/12 13:05:20;;;;;;;3.92;1.55;;;;;;;;;;5033622;28;20053;-68
2022/08/12 13:07:54;;;;;;;2.27;1.40;;;;;;;;;;5033703;28;20045;-68
2022/08/12 13:10:28;;;;;;;4.25;1.90;;;;;;;;;;5033315;28;20509;-67
2022/08/12 13:13:01;;;;;;;3.60;1.67;;;;;;;;;;5033798;28;20053;-68
2022/08/12 13:15:48;;;;;;;4.05;1.70;;;;;;;;;;5033529;28;20395;-68
2022/08/12 13:18:16;;;;;;;2.35;1.70;;;;;;;;;;5033406;28;20049;-68
2022/08/12 13:20:44;;;;;;;2.00;1.80;;;;;;;;;;5033187;28;20049;-68
2022/08/12 13:23:12;;;;;;;2.97;1.70;;;;;;;;;;5033570;28;20045;-68
2022/08/12 13:26:00;;;;;;;2.63;1.90;;;;;;;;;;5033408;28;20041;-68
2022/08/12 13:28:27;;;;;;;2.78;1.92;;;;;;;;;;5033457;28;20103;-68
2022/08/12 13:30:56;;;;;;;4.22;1.67;;;;;;;;;;5033388;28;20417;-68
2022/08/12 13:33:24;;;;;;;2.35;1.70;;;;;;;;;;5032930;28;20450;-68
2022/08/12 13:36:00;;;;;;;3.03;1.80;;;;;;;;;;5033320;28;20088;-68
2022/08/12 13:38:43;;;;;;;2.30;1.70;;;;;;;;;;5033069;28;20067;-68
2022/08/12 13:41:32;;;;;;;3.55;1.70;;;;;;;;;;5033381;28;20124;-67
2022/08/12 13:43:59;;;;;;;1.60;1.50;;;;;;;;;;5032760;28;20045;-69
2022/08/12 13:46:26;;;;;;;3.30;1.85;;;;;;;;;;5033062;28;20137;-68
2022/08/12 13:48:54;;;;;;;1.80;1.70;;;;;;;;;;5033089;28;20069;-68
2022/08/12 13:51:22;;;;;;;1.73;1.63;;;;;;;;;;5032983;28;20053;-68
2022/08/12 13:53:50;;;;;;;3.97;1.85;;;;;;;;;;5032918;28;20065;-68
2022/08/12 13:56:26;;;;;;;3.70;1.50;;;;;;;;;;5032607;28;20413;-68
2022/08/12 13:59:00;;;;;;;5.60;1.77;;;;;;;;;;5031246;28;20060;-64
2022/08/12 14:01:27;;;;;;;2.35;1.70;;;;;;;;;;5031532;28;20125;-64
2022/08/12 14:03:53;;;;;;;6.80;1.88;;;;;;;;;;5031921;28;20053;-66
2022/08/12 14:06:20;;;;;;;2.60;1.70;;;;;;;;;;5031963;28;20045;-64
2022/08/12 14:08:51;;;;;;;2.42;1.85;;;;;;;;;;5032027;28;20061;-65
2022/08/12 14:11:19;;;;;;;2.20;1.70;;;;;;;;;;5032098;28;20061;-67
2022/08/12 14:13:53;;;;;;;3.90;1.87;;;;;;;;;;5031956;28;20053;-67
2022/08/12 14:16:36;;;;;;;2.40;1.70;;;;;;;;;;5032125;28;20056;-65
2022/08/12 14:19:17;;;;;;;6.13;2.25;;;;;;;;;;5029865;28;20057;-66
2022/08/12 14:21:51;;;;;;;2.72;1.80;;;;;;;;;;5032014;28;20461;-68
2022/08/12 14:24:33;;;;;;;7.70;2.47;;;;;;;;;;5030064;28;20057;-66
2022/08/12 14:27:00;;;;;;;5.43;2.08;;;;;;;;;;5028028;28;20085;-65
2022/08/12 14:29:28;;;;;;;3.70;1.92;;;;;;;;;;5031055;28;20053;-65
2022/08/12 14:32:16;;;;;;;2.15;1.95;;;;;;;;;;5026966;28;20147;-64
2022/08/12 14:34:44;;;;;;;2.92;2.00;;;;;;;;;;5030786;28;20055;-64
2022/08/12 14:37:11;;;;;;;2.03;1.70;;;;;;;;;;5031327;28;20053;-66
2022/08/12 14:39:59;;;;;;;2.33;1.90;;;;;;;;;;5031240;28;20572;-67
2022/08/12 14:42:26;;;;;;;2.95;2.03;;;;;;;;;;5031069;28;20056;-67
2022/08/12 14:44:56;;;;;;;1.90;1.70;;;;;;;;;;5031207;28;20077;-68
2022/08/12 14:47:27;;;;;;;2.92;1.90;;;;;;;;;;5028549;28;20477;-65
2022/08/12 14:50:01;;;;;;;4.53;2.05;;;;;;;;;;5029999;28;20517;-68
2022/08/12 14:52:48;;;;;;;2.28;1.67;;;;;;;;;;5030031;28;20060;-67
2022/08/12 14:55:39;;;;;;;2.10;1.90;;;;;;;;;;5030354;28;20433;-65
2022/08/12 14:58:26;;;;;;;2.45;1.80;;;;;;;;;;5028612;28;20049;-65
2022/08/12 15:03:37;;;;;;;;;;;;;;;;;;5030495;28;20041;-67
2022/08/12 15:06:19;;;;;;;2.70;1.80;;;;;;;;;;5029745;28;19925;-67
2022/08/12 15:09:06;;;;;;;3.00;1.80;;;;;;;;;;5027989;28;20049;-67
2022/08/12 15:11:34;;;;;;;3.92;1.85;;;;;;;;;;5030756;28;20073;-64
2022/08/12 15:14:21;;;;;;;1.92;1.83;;;;;;;;;;5030718;28;20076;-66
2022/08/12 15:16:47;;;;;;;1.70;1.60;;;;;;;;;;5031043;28;20049;-65
2022/08/12 15:19:15;;;;;;;3.40;1.60;;;;;;;;;;5028821;28;20133;-65
2022/08/12 15:22:01;;;;;;;1.55;1.42;;;;;;;;;;5030084;28;20057;-65
2022/08/12 15:24:48;;;;;;;2.33;1.70;;;;;;;;;;5030828;28;20056;-64
2022/08/12 15:27:14;;;;;;;1.95;1.80;;;;;;;;;;5030615;28;20418;-67
2022/08/12 15:29:47;;;;;;;1.85;1.75;;;;;;;;;;5030284;28;20417;-67
2022/08/12 15:32:17;;;;;;;2.47;2.10;;;;;;;;;;5030493;28;20041;-67
2022/08/12 15:34:59;;;;;;;3.22;1.63;;;;;;;;;;5030569;28;20073;-65
2022/08/12 15:37:26;;;;;;;5.07;2.00;;;;;;;;;;5032309;28;20100;-65
2022/08/12 15:40:12;;;;;;;1.70;1.60;;;;;;;;;;5034663;28;20140;-64
2022/08/12 15:42:39;;;;;;;3.90;1.80;;;;;;;;;;5034937;28;20053;-66
2022/08/12 15:45:12;;;;;;;1.70;1.60;;;;;;;;;;5021757;28;20516;-65
2022/08/12 15:47:52;;;;;;;1.70;1.70;;;;;;;;;;5034266;28;20049;-67
2022/08/12 15:50:38;;;;;;;2.47;2.00;;;;;;;;;;5034417;28;20716;-65
2022/08/12 15:53:11;;;;;;;1.63;1.52;;;;;;;;;;5032181;28;20061;-65
2022/08/12 15:55:40;;;;;;;6.35;1.88;;;;;;;;;;5034617;28;20049;-67
2022/08/12 15:58:12;;;;;;;1.60;1.50;;;;;;;;;;5034756;28;20072;-68
2022/08/12 16:00:42;;;;;;;1.63;1.50;;;;;;;;;;5034609;28;20041;-68
2022/08/12 16:03:09;;;;;;;2.10;1.90;;;;;;;;;;5034185;28;20558;-67
2022/08/12 16:05:45;;;;;;;2.95;2.30;;;;;;;;;;5034161;28;20045;-66
2022/08/12 16:08:38;;;;;;;1.70;1.60;;;;;;;;;;5034217;28;20068;-67
2022/08/12 16:11:05;;;;;;;2.13;1.70;;;;;;;;;;5034171;28;20134;-68
2022/08/12 16:13:40;;;;;;;3.50;1.90;;;;;;;;;;5034358;28;20049;-67
2022/08/12 16:16:09;;;;;;;5.55;2.03;;;;;;;;;;5034484;28;20390;-66
2022/08/12 16:18:50;;;;;;;1.80;1.70;;;;;;;;;;5031029;28;20270;-64
2022/08/12 16:21:18;;;;;;;4.35;2.10;;;;;;;;;;5033467;28;20041;-65
2022/08/12 16:24:06;;;;;;;2.03;1.92;;;;;;;;;;5020212;28;20505;-66
2022/08/12 16:26:34;;;;;;;1.90;1.80;;;;;;;;;;5025710;28;20111;-68
2022/08/12 16:29:01;;;;;;;2.70;1.90;;;;;;;;;;5032512;28;20535;-65
2022/08/12 16:31:41;;;;;;;1.90;1.80;;;;;;;;;;5033469;28;20057;-67
2022/08/12 16:37:33;;;;;;;2.83;1.83;;;;;;;;;;5032547;28;20064;-64
2022/08/12 16:40:19;;;;;;;3.72;2.10;;;;;;;;;;5034072;28;20056;-65
2022/08/12 16:42:46;;;;;;;2.03;1.75;;;;;;;;;;5034209;28;20087;-65
2022/08/12 16:45:30;;;;;;;2.47;2.25;;;;;;;;;;5034062;28;20045;-65
2022/08/12 16:48:16;;;;;;;2.08;1.95;;;;;;;;;;5033627;28;20049;-63
2022/08/12 16:51:05;;;;;;;2.00;1.90;;;;;;;;;;5032981;28;20061;-65
2022/08/12 16:53:39;;;;;;;4.43;2.25;;;;;;;;;;5031962;28;20417;-64
2022/08/12 16:56:11;;;;;;;2.88;2.15;;;;;;;;;;5033921;28;20045;-65
2022/08/12 16:58:38;;;;;;;3.03;1.90;;;;;;;;;;5033672;28;20502;-65
2022/08/12 17:01:10;;;;;;;3.60;2.10;;;;;;;;;;5033155;28;20038;-64
2022/08/12 17:03:43;;;;;;;5.80;2.28;;;;;;;;;;5033355;28;20094;-64
2022/08/12 17:06:17;;;;;;;2.28;2.00;;;;;;;;;;5033086;28;20049;-64
2022/08/12 17:08:47;;;;;;;3.08;2.50;;;;;;;;;;5031983;28;20048;-64
2022/08/12 17:11:21;;;;;;;3.33;2.35;;;;;;;;;;5030988;28;20454;-64
2022/08/12 17:13:48;;;;;;;;;;;;;;;;;;5033290;28;20103;-63
2022/08/12 17:16:19;;;;;;;2.42;2.20;;;;;;;;;;5032290;28;19928;-64